Time;durP1;ratioP1;P1;durP2;ratioP2;P2;SDS_P1;SDS_P2;PMS_P1;PMS_P2;Temp;Humidity;BMP_temperature;BMP_pressure;BME280_temperature;BME280_humidity;BME280_pressure;Samples;Min_cycle;Max_cycle;Signal;HPM_P1;HPM_P2
2021/04/08 00:02:09;;;;;;;3.15;0.55;;;22.80;99.90;;;;;;5051259;28;20035;-73
2021/04/08 00:04:37;;;;;;;3.67;0.63;;;22.50;99.90;;;;;;5045761;28;20047;-72
2021/04/08 00:07:04;;;;;;;2.47;0.50;;;22.50;99.90;;;;;;5048089;28;20036;-73
2021/04/08 00:09:31;;;;;;;4.97;0.80;;;23.10;99.90;;;;;;5048078;28;20087;-72
2021/04/08 00:11:59;;;;;;;4.25;1.00;;;24.20;99.90;;;;;;5038696;28;20040;-73
2021/04/08 00:14:27;;;;;;;2.80;0.50;;;24.30;99.90;;;;;;5044540;28;20049;-73
2021/04/08 00:16:55;;;;;;;2.88;0.85;;;24.00;99.90;;;;;;5049159;28;20022;-73
2021/04/08 00:19:22;;;;;;;4.68;0.50;;;23.90;99.90;;;;;;5051049;28;20027;-72
2021/04/08 00:21:50;;;;;;;3.50;0.80;;;24.10;99.90;;;;;;5047349;28;20421;-73
2021/04/08 00:24:17;;;;;;;2.53;0.73;;;24.20;99.90;;;;;;5050340;28;20477;-73
2021/04/08 00:26:44;;;;;;;4.03;0.70;;;24.50;99.90;;;;;;5041062;28;20385;-73
2021/04/08 00:29:12;;;;;;;3.17;0.50;;;23.50;99.90;;;;;;5051357;28;20036;-73
2021/04/08 00:31:39;;;;;;;3.67;0.60;;;23.90;99.90;;;;;;5048974;28;20064;-76
2021/04/08 00:34:06;;;;;;;4.32;0.52;;;24.50;99.90;;;;;;5053000;28;20033;-73
2021/04/08 00:36:33;;;;;;;4.63;0.65;;;24.40;99.90;;;;;;5047499;28;20025;-73
2021/04/08 00:39:01;;;;;;;3.85;0.68;;;24.10;99.90;;;;;;5048644;28;20139;-73
2021/04/08 00:41:28;;;;;;;5.70;0.88;;;23.60;99.90;;;;;;5047947;28;20018;-73
2021/04/08 00:43:57;;;;;;;3.50;0.75;;;23.90;99.90;;;;;;5031246;28;20022;-73
2021/04/08 00:46:24;;;;;;;4.50;0.60;;;25.00;99.90;;;;;;5030701;28;20026;-73
2021/04/08 00:48:52;;;;;;;3.95;0.47;;;24.60;99.90;;;;;;5052803;28;20095;-73
2021/04/08 00:51:19;;;;;;;3.97;0.70;;;24.20;99.90;;;;;;5056401;28;20428;-73
2021/04/08 00:53:47;;;;;;;4.55;0.80;;;23.80;99.90;;;;;;5056270;28;20112;-73
2021/04/08 00:56:16;;;;;;;6.22;1.30;;;23.40;99.90;;;;;;5056885;28;20075;-73
2021/04/08 00:58:44;;;;;;;6.88;0.93;;;23.20;99.90;;;;;;5055718;28;20017;-74
2021/04/08 01:01:13;;;;;;;3.28;1.00;;;23.00;99.90;;;;;;5057239;28;20057;-73
2021/04/08 01:03:41;;;;;;;7.05;1.50;;;22.90;99.90;;;;;;5055078;28;20120;-73
2021/04/08 01:06:09;;;;;;;4.57;0.82;;;23.00;99.90;;;;;;5056529;28;20039;-73
2021/04/08 01:08:39;;;;;;;4.80;0.88;;;22.90;99.90;;;;;;5054703;28;20401;-73
2021/04/08 01:11:07;;;;;;;4.70;0.77;;;22.90;99.90;;;;;;5055030;28;20025;-74
2021/04/08 01:13:37;;;;;;;5.40;1.08;;;22.90;99.90;;;;;;5054084;28;20480;-74
2021/04/08 01:16:14;;;;;;;4.20;1.05;;;23.10;99.90;;;;;;5054431;28;20025;-74
2021/04/08 01:18:52;;;;;;;8.23;1.25;;;23.60;99.90;;;;;;5052865;28;20013;-73
2021/04/08 01:21:51;;;;;;;5.70;0.88;;;23.40;99.90;;;;;;5036474;28;20029;-73
2021/04/08 01:24:49;;;;;;;7.80;0.70;;;23.40;99.90;;;;;;5036097;28;20045;-73
2021/04/08 01:27:45;;;;;;;6.38;1.33;;;23.80;99.90;;;;;;5042885;28;20100;-74
2021/04/08 01:30:17;;;;;;;6.60;1.77;;;24.70;99.90;;;;;;5045763;28;20033;-74
2021/04/08 01:32:55;;;;;;;8.27;1.35;;;25.20;99.90;;;;;;5054583;28;20132;-74
2021/04/08 01:35:28;;;;;;;6.18;1.08;;;24.90;99.90;;;;;;5055723;28;20057;-74
2021/04/08 01:38:05;;;;;;;4.25;0.95;;;24.50;99.90;;;;;;5054022;28;20032;-74
2021/04/08 01:40:34;;;;;;;4.75;1.10;;;24.20;99.90;;;;;;5056259;28;20025;-74
2021/04/08 01:43:05;;;;;;;8.73;0.73;;;23.90;99.90;;;;;;5054180;28;20028;-74
2021/04/08 01:45:33;;;;;;;6.15;1.13;;;23.60;99.90;;;;;;5051681;28;20025;-73
2021/04/08 01:48:04;;;;;;;18.23;1.75;;;23.40;99.90;;;;;;5051913;28;20029;-73
2021/04/08 01:50:32;;;;;;;5.20;1.05;;;23.30;99.90;;;;;;5051143;28;20083;-73
2021/04/08 01:53:01;;;;;;;10.07;1.20;;;23.20;99.90;;;;;;5044781;28;20112;-74
2021/04/08 01:55:33;;;;;;;2.72;0.60;;;23.30;99.90;;;;;;5055365;28;20063;-74
2021/04/08 01:58:01;;;;;;;6.00;0.95;;;23.20;99.90;;;;;;5046477;28;20033;-74
2021/04/08 02:00:29;;;;;;;8.20;1.23;;;23.30;99.90;;;;;;5053236;28;20052;-74
2021/04/08 02:02:57;;;;;;;6.63;1.17;;;23.30;99.90;;;;;;5051373;28;20017;-74
2021/04/08 02:05:26;;;;;;;4.47;0.63;;;23.40;99.90;;;;;;5035347;28;20105;-74
2021/04/08 02:07:56;;;;;;;7.13;0.95;;;23.40;99.90;;;;;;5045058;28;20064;-73
2021/04/08 02:10:27;;;;;;;4.45;0.65;;;23.40;99.90;;;;;;5054637;28;20404;-73
2021/04/08 02:12:56;;;;;;;5.78;1.00;;;23.20;99.90;;;;;;5052324;28;20033;-73
2021/04/08 02:15:24;;;;;;;4.80;1.15;;;23.20;99.90;;;;;;5049894;28;20108;-73
2021/04/08 02:18:01;;;;;;;5.68;0.80;;;23.10;99.90;;;;;;5052904;28;20076;-73
2021/04/08 02:20:31;;;;;;;8.45;0.80;;;23.10;99.90;;;;;;5041661;28;20029;-74
2021/04/08 02:23:06;;;;;;;9.07;1.45;;;23.00;99.90;;;;;;5043332;28;20476;-73
2021/04/08 02:25:35;;;;;;;7.43;1.15;;;22.90;99.90;;;;;;5051788;28;20158;-73
2021/04/08 02:28:06;;;;;;;6.18;0.75;;;22.90;99.90;;;;;;5050671;28;20378;-74
2021/04/08 02:30:46;;;;;;;4.00;0.68;;;22.90;99.90;;;;;;5043494;28;20033;-74
2021/04/08 02:33:29;;;;;;;4.95;0.73;;;22.90;99.90;;;;;;5048419;28;20464;-73
2021/04/08 02:35:58;;;;;;;5.28;1.05;;;23.10;99.90;;;;;;5047845;28;20120;-74
2021/04/08 02:38:31;;;;;;;2.63;0.43;;;23.90;99.90;;;;;;5043912;28;20096;-73
2021/04/08 02:41:06;;;;;;;4.63;1.02;;;24.90;99.90;;;;;;5042109;28;20025;-73
2021/04/08 02:43:34;;;;;;;3.53;0.70;;;26.30;99.90;;;;;;5043316;28;20397;-74
2021/04/08 02:46:02;;;;;;;4.30;0.60;;;26.10;99.90;;;;;;5050763;28;20020;-74
2021/04/08 02:48:32;;;;;;;3.35;0.70;;;25.60;99.90;;;;;;5050341;28;20033;-73
2021/04/08 02:51:19;;;;;;;3.95;0.57;;;25.70;99.90;;;;;;5053055;28;20021;-73
2021/04/08 02:54:14;;;;;;;3.80;0.98;;;26.10;99.90;;;;;;5052256;28;20029;-73
2021/04/08 02:56:51;;;;;;;2.92;0.40;;;26.30;99.90;;;;;;5050504;28;20030;-73
2021/04/08 02:59:28;;;;;;;3.47;0.40;;;26.10;99.90;;;;;;5044898;28;20095;-73
2021/04/08 03:02:14;;;;;;;1.80;0.43;;;25.80;99.90;;;;;;5048620;28;20055;-73
2021/04/08 03:04:53;;;;;;;4.75;0.50;;;25.60;99.90;;;;;;5034697;28;20036;-73
2021/04/08 03:07:49;;;;;;;5.80;1.05;;;25.80;99.90;;;;;;5051703;28;20025;-73
2021/04/08 03:10:17;;;;;;;3.28;0.50;;;26.00;99.90;;;;;;5052398;28;20036;-73
2021/04/08 03:12:51;;;;;;;4.20;0.70;;;25.90;99.90;;;;;;5065239;28;20036;-73
2021/04/08 03:15:38;;;;;;;2.67;0.52;;;25.80;99.90;;;;;;5052375;28;20044;-74
2021/04/08 03:18:14;;;;;;;4.47;0.73;;;25.60;99.90;;;;;;5051188;28;20033;-73
2021/04/08 03:20:43;;;;;;;3.58;0.57;;;25.40;99.90;;;;;;5050379;28;20401;-73
2021/04/08 03:23:14;;;;;;;1.30;0.30;;;25.80;99.90;;;;;;5047356;28;20116;-73
2021/04/08 03:25:42;;;;;;;1.67;0.43;;;26.00;99.90;;;;;;5040859;28;20040;-73
2021/04/08 03:28:14;;;;;;;3.22;0.30;;;25.50;99.90;;;;;;5046956;28;20078;-73
2021/04/08 03:30:42;;;;;;;1.75;0.30;;;25.90;99.90;;;;;;5051917;28;20087;-73
2021/04/08 03:33:10;;;;;;;2.60;0.20;;;26.00;99.90;;;;;;5042707;28;20048;-73
2021/04/08 03:35:38;;;;;;;1.30;0.30;;;25.90;99.90;;;;;;5051067;28;20110;-74
2021/04/08 03:38:06;;;;;;;2.35;0.17;;;25.70;99.90;;;;;;5051121;28;20025;-73
2021/04/08 03:40:34;;;;;;;2.67;0.30;;;25.70;99.90;;;;;;5051275;28;20037;-73
2021/04/08 03:43:02;;;;;;;3.10;0.40;;;25.80;99.90;;;;;;5050998;28;20029;-73
2021/04/08 03:45:29;;;;;;;1.02;0.20;;;25.40;99.90;;;;;;5051235;28;20029;-73
2021/04/08 03:48:01;;;;;;;2.55;0.30;;;25.00;99.90;;;;;;5051261;28;20424;-73
2021/04/08 03:50:29;;;;;;;2.78;0.30;;;25.40;99.90;;;;;;5050077;28;20021;-73
2021/04/08 03:52:57;;;;;;;2.55;0.43;;;25.60;99.90;;;;;;5051450;28;20128;-73
2021/04/08 03:55:27;;;;;;;4.72;0.50;;;25.40;99.90;;;;;;5052951;28;20035;-73
2021/04/08 03:57:54;;;;;;;3.42;0.40;;;25.10;99.90;;;;;;5050913;28;20113;-73
2021/04/08 04:00:22;;;;;;;2.05;0.17;;;25.20;99.90;;;;;;5051623;28;20052;-73
2021/04/08 04:02:50;;;;;;;2.17;0.10;;;25.20;99.90;;;;;;5051310;28;20489;-73
2021/04/08 04:05:17;;;;;;;4.15;0.85;;;25.20;99.90;;;;;;5043840;28;20029;-73
2021/04/08 04:07:51;;;;;;;3.25;0.20;;;25.40;99.90;;;;;;5044303;28;20025;-73
2021/04/08 04:10:22;;;;;;;3.63;0.30;;;25.20;99.90;;;;;;5051875;28;20041;-73
2021/04/08 04:12:52;;;;;;;2.28;0.35;;;25.10;99.90;;;;;;5049887;28;20032;-73
2021/04/08 04:15:21;;;;;;;2.75;0.28;;;25.00;99.90;;;;;;5047764;28;20025;-73
2021/04/08 04:17:49;;;;;;;2.25;0.40;;;25.20;99.90;;;;;;5047827;28;20048;-73
2021/04/08 04:20:16;;;;;;;1.77;0.30;;;25.20;99.90;;;;;;5043038;28;20025;-73
2021/04/08 04:22:44;;;;;;;1.15;0.30;;;25.20;99.90;;;;;;5041549;28;20090;-73
2021/04/08 04:25:14;;;;;;;2.30;0.65;;;25.10;99.90;;;;;;5047376;28;20378;-73
2021/04/08 04:27:41;;;;;;;3.97;0.38;;;25.00;99.90;;;;;;5042558;28;20060;-73
2021/04/08 04:30:10;;;;;;;2.92;0.22;;;24.90;99.90;;;;;;5048070;28;20041;-72
2021/04/08 04:32:37;;;;;;;1.98;0.30;;;24.90;99.90;;;;;;5042540;28;20111;-72
2021/04/08 04:35:08;;;;;;;2.78;0.80;;;24.70;99.90;;;;;;5045713;28;20099;-72
2021/04/08 04:37:35;;;;;;;2.55;0.43;;;24.60;99.90;;;;;;5047886;28;20537;-73
2021/04/08 04:40:05;;;;;;;2.80;0.25;;;24.50;99.90;;;;;;5040354;28;20025;-73
2021/04/08 04:42:34;;;;;;;2.67;0.35;;;24.40;99.90;;;;;;5034730;28;20045;-72
2021/04/08 04:45:02;;;;;;;3.17;0.40;;;24.40;99.90;;;;;;5049650;28;20023;-73
2021/04/08 04:47:29;;;;;;;1.92;0.68;;;24.30;99.90;;;;;;5042713;28;20025;-72
2021/04/08 04:49:57;;;;;;;1.25;0.20;;;24.30;99.90;;;;;;5050743;28;20473;-72
2021/04/08 04:52:24;;;;;;;0.93;0.20;;;24.50;99.90;;;;;;5050122;28;20017;-73
2021/04/08 04:54:55;;;;;;;2.25;0.20;;;24.10;99.90;;;;;;5045897;28;20397;-72
2021/04/08 04:57:22;;;;;;;2.10;0.30;;;24.20;99.90;;;;;;5039463;28;20025;-72
2021/04/08 04:59:49;;;;;;;2.92;0.30;;;24.10;99.90;;;;;;5052250;28;20025;-73
2021/04/08 05:02:16;;;;;;;5.03;0.40;;;24.00;99.90;;;;;;5050644;28;20029;-72
2021/04/08 05:04:44;;;;;;;2.00;0.47;;;23.80;99.90;;;;;;5036885;28;20438;-72
2021/04/08 05:07:11;;;;;;;1.48;0.28;;;23.80;99.90;;;;;;5050034;28;20032;-72
2021/04/08 05:09:38;;;;;;;2.33;0.17;;;23.80;99.90;;;;;;5052278;28;20029;-72
2021/04/08 05:12:06;;;;;;;1.90;0.30;;;23.70;99.90;;;;;;5050378;28;20021;-72
2021/04/08 05:14:33;;;;;;;2.17;0.10;;;23.70;99.90;;;;;;5050544;28;20493;-72
2021/04/08 05:17:01;;;;;;;1.05;0.17;;;23.50;99.90;;;;;;5050522;28;20021;-72
2021/04/08 05:19:28;;;;;;;1.92;0.28;;;23.40;99.90;;;;;;5052611;28;20033;-72
2021/04/08 05:21:55;;;;;;;2.97;0.38;;;23.40;99.90;;;;;;5050356;28;20082;-72
2021/04/08 05:24:23;;;;;;;2.25;0.50;;;23.30;99.90;;;;;;5050800;28;20017;-72
2021/04/08 05:26:50;;;;;;;4.38;1.08;;;23.30;99.90;;;;;;5050264;28;20048;-72
2021/04/08 05:29:17;;;;;;;1.83;0.43;;;23.30;99.90;;;;;;5052012;28;20021;-72
2021/04/08 05:31:45;;;;;;;0.95;0.20;;;23.40;99.90;;;;;;5050839;28;20075;-72
2021/04/08 05:34:12;;;;;;;5.15;1.10;;;23.30;99.90;;;;;;5051858;28;20033;-72
2021/04/08 05:36:39;;;;;;;0.55;0.17;;;23.20;99.90;;;;;;5052346;28;20060;-72
2021/04/08 05:39:07;;;;;;;2.03;0.20;;;23.20;99.90;;;;;;5055860;28;20025;-72
2021/04/08 05:41:34;;;;;;;1.33;0.20;;;23.20;99.90;;;;;;5049809;28;20024;-72
2021/04/08 05:44:04;;;;;;;0.80;0.10;;;23.10;99.90;;;;;;5055570;28;20500;-72
2021/04/08 05:46:31;;;;;;;2.35;0.30;;;23.20;99.90;;;;;;5053746;28;20087;-72
2021/04/08 05:48:58;;;;;;;2.72;0.45;;;23.10;99.90;;;;;;5055525;28;20017;-72
2021/04/08 05:51:26;;;;;;;3.00;0.63;;;23.10;99.90;;;;;;5053825;28;20021;-71
2021/04/08 05:53:54;;;;;;;0.63;0.20;;;23.20;99.90;;;;;;5051778;28;20067;-71
2021/04/08 05:56:21;;;;;;;2.17;0.20;;;23.10;99.90;;;;;;5035439;28;20017;-71
2021/04/08 05:58:51;;;;;;;0.40;0.10;;;23.10;99.90;;;;;;5054453;28;20021;-71
2021/04/08 06:01:19;;;;;;;4.82;0.20;;;23.00;99.90;;;;;;5054228;28;20478;-72
2021/04/08 06:03:48;;;;;;;1.77;0.30;;;23.00;99.90;;;;;;5054415;28;20017;-71
2021/04/08 06:06:15;;;;;;;2.75;0.35;;;23.00;99.90;;;;;;5070546;28;20029;-71
2021/04/08 06:08:42;;;;;;;2.05;0.50;;;23.00;99.90;;;;;;5053621;28;20075;-71
2021/04/08 06:11:09;;;;;;;3.97;0.32;;;23.00;99.90;;;;;;5055002;28;20055;-71
2021/04/08 06:13:37;;;;;;;1.85;0.40;;;23.00;99.90;;;;;;5053216;28;20508;-72
2021/04/08 06:16:05;;;;;;;1.02;0.77;;;23.00;99.90;;;;;;5036365;28;20558;-72
2021/04/08 06:18:32;;;;;;;1.65;0.30;;;22.90;99.90;;;;;;5046055;28;20440;-72
2021/04/08 06:21:00;;;;;;;2.83;0.30;;;22.90;99.90;;;;;;5054498;28;20104;-71
2021/04/08 06:23:27;;;;;;;1.88;0.30;;;22.90;99.90;;;;;;5051735;28;20047;-71
2021/04/08 06:25:55;;;;;;;3.47;0.30;;;22.90;99.90;;;;;;5038302;28;20160;-72
2021/04/08 06:28:22;;;;;;;3.72;0.77;;;22.80;99.90;;;;;;5046718;28;20021;-72
2021/04/08 06:30:49;;;;;;;2.67;0.20;;;22.80;99.90;;;;;;5052548;28;20044;-72
2021/04/08 06:33:17;;;;;;;2.83;0.50;;;22.60;99.90;;;;;;5052232;28;20127;-71
2021/04/08 06:35:44;;;;;;;3.03;0.52;;;22.70;99.90;;;;;;5053925;28;20021;-71
2021/04/08 06:38:11;;;;;;;3.25;0.40;;;22.60;99.90;;;;;;5048013;28;20082;-71
2021/04/08 06:40:39;;;;;;;2.90;0.30;;;22.60;99.90;;;;;;5053048;28;20021;-72
2021/04/08 06:43:11;;;;;;;3.97;0.77;;;22.50;99.90;;;;;;5050947;28;20077;-70
2021/04/08 06:45:43;;;;;;;3.45;0.30;;;22.50;99.90;;;;;;5053261;28;20381;-72
2021/04/08 06:48:21;;;;;;;2.00;0.30;;;22.50;99.90;;;;;;5051964;28;20021;-72
2021/04/08 06:50:52;;;;;;;2.10;0.30;;;22.40;99.90;;;;;;5053755;28;20122;-72
2021/04/08 06:53:21;;;;;;;3.38;0.40;;;22.40;99.90;;;;;;5044760;28;20102;-73
2021/04/08 06:55:51;;;;;;;6.28;0.75;;;22.30;99.90;;;;;;5047455;28;20029;-72
2021/04/08 06:58:19;;;;;;;3.63;0.60;;;22.20;99.90;;;;;;5047808;28;20029;-72
2021/04/08 07:00:46;;;;;;;2.70;0.50;;;22.30;99.90;;;;;;5052989;28;20114;-72
2021/04/08 07:03:14;;;;;;;2.10;0.30;;;22.20;99.90;;;;;;5050034;28;20408;-73
2021/04/08 07:05:42;;;;;;;2.20;0.30;;;22.30;99.90;;;;;;5052261;28;20067;-73
2021/04/08 07:08:10;;;;;;;4.05;0.63;;;22.20;99.90;;;;;;5045000;28;20025;-73
2021/04/08 07:10:41;;;;;;;2.78;0.30;;;22.20;99.90;;;;;;5053470;28;20473;-73
2021/04/08 07:13:08;;;;;;;3.28;0.70;;;22.10;99.90;;;;;;5049211;28;20033;-73
2021/04/08 07:15:36;;;;;;;5.07;0.50;;;22.10;99.90;;;;;;5050400;28;20025;-73
2021/04/08 07:18:04;;;;;;;3.70;0.52;;;22.00;99.90;;;;;;5050901;28;20067;-73
2021/04/08 07:20:32;;;;;;;5.10;0.30;;;21.90;99.90;;;;;;5045450;28;20104;-73
2021/04/08 07:23:25;;;;;;;2.13;0.30;;;21.90;99.90;;;;;;5046897;28;20537;-72
2021/04/08 07:26:12;;;;;;;2.92;0.43;;;21.90;99.90;;;;;;5043710;28;20127;-73
2021/04/08 07:28:42;;;;;;;3.60;0.50;;;21.90;99.90;;;;;;5047550;28;20025;-73
2021/04/08 07:31:32;;;;;;;4.90;0.25;;;21.90;99.90;;;;;;5049355;28;20036;-73
2021/04/08 07:34:03;;;;;;;4.15;0.30;;;21.80;99.90;;;;;;5043338;28;20029;-73
2021/04/08 07:36:32;;;;;;;2.97;0.50;;;21.70;99.90;;;;;;5047762;28;20017;-73
2021/04/08 07:39:01;;;;;;;2.30;0.40;;;21.70;99.90;;;;;;5045639;28;20043;-73
2021/04/08 07:41:31;;;;;;;1.92;0.52;;;21.80;99.90;;;;;;5042413;28;20052;-73
2021/04/08 07:44:04;;;;;;;4.25;0.70;;;21.70;99.90;;;;;;5046639;28;20505;-73
2021/04/08 07:46:42;;;;;;;6.57;1.10;;;21.70;99.90;;;;;;5046992;28;20017;-73
2021/04/08 07:49:28;;;;;;;3.53;0.90;;;21.70;99.90;;;;;;5046419;28;20028;-73
2021/04/08 07:51:57;;;;;;;3.65;0.40;;;21.70;99.90;;;;;;5046466;28;20032;-72
2021/04/08 07:54:24;;;;;;;1.35;0.25;;;21.60;99.90;;;;;;5042894;28;20063;-73
2021/04/08 07:56:52;;;;;;;6.85;0.55;;;21.60;99.90;;;;;;5045061;28;20790;-72
2021/04/08 07:59:29;;;;;;;2.05;0.40;;;21.50;99.90;;;;;;5048653;28;20108;-72
2021/04/08 08:02:05;;;;;;;2.80;0.40;;;21.50;99.90;;;;;;5048047;28;20539;-72
2021/04/08 08:04:33;;;;;;;2.47;0.40;;;21.50;99.90;;;;;;5044164;28;20021;-72
2021/04/08 08:07:01;;;;;;;2.38;0.60;;;21.50;99.90;;;;;;5042629;28;20078;-73
2021/04/08 08:09:30;;;;;;;2.80;0.40;;;21.40;99.90;;;;;;5036539;28;20017;-72
2021/04/08 08:12:18;;;;;;;3.55;0.30;;;21.40;99.90;;;;;;5041999;28;20355;-72
2021/04/08 08:14:46;;;;;;;4.55;0.60;;;21.40;99.90;;;;;;5046795;28;20087;-73
2021/04/08 08:17:15;;;;;;;5.30;0.65;;;21.40;99.90;;;;;;5034849;28;20033;-73
2021/04/08 08:19:45;;;;;;;2.28;0.70;;;21.40;99.90;;;;;;5039500;28;20048;-73
2021/04/08 08:22:20;;;;;;;2.60;0.70;;;21.40;99.90;;;;;;5037499;28;20025;-73
2021/04/08 08:24:59;;;;;;;4.40;0.70;;;21.40;99.90;;;;;;5049479;28;20398;-73
2021/04/08 08:27:49;;;;;;;8.02;0.95;;;21.40;99.90;;;;;;5049837;28;20025;-73
2021/04/08 08:30:23;;;;;;;4.10;0.60;;;21.50;99.90;;;;;;5046674;28;20432;-73
2021/04/08 08:33:18;;;;;;;3.05;1.10;;;21.40;99.90;;;;;;5047160;28;20060;-73
2021/04/08 08:35:45;;;;;;;8.50;2.70;;;21.40;99.90;;;;;;5048973;28;20525;-73
2021/04/08 08:38:20;;;;;;;3.10;0.98;;;21.30;99.90;;;;;;5046163;28;20140;-73
2021/04/08 08:40:48;;;;;;;4.72;1.15;;;21.40;99.90;;;;;;5045500;28;20079;-73
2021/04/08 08:43:17;;;;;;;3.00;0.50;;;21.30;99.90;;;;;;5046492;28;20033;-73
2021/04/08 08:45:45;;;;;;;2.75;0.47;;;21.30;99.90;;;;;;5049671;28;20036;-73
2021/04/08 08:48:18;;;;;;;2.95;0.60;;;21.20;99.90;;;;;;5049466;28;20037;-73
2021/04/08 08:50:49;;;;;;;2.63;0.57;;;21.20;99.90;;;;;;5051761;28;20021;-73
2021/04/08 08:53:17;;;;;;;3.03;0.80;;;21.10;99.90;;;;;;5051387;28;20056;-73
2021/04/08 08:55:44;;;;;;;2.08;0.73;;;21.10;99.90;;;;;;5067469;28;20033;-73
2021/04/08 08:58:12;;;;;;;2.35;1.00;;;21.00;99.90;;;;;;5048743;28;20025;-73
2021/04/08 09:00:39;;;;;;;2.40;0.60;;;21.00;99.90;;;;;;5050504;28;20385;-73
2021/04/08 09:03:07;;;;;;;2.85;0.77;;;21.00;99.90;;;;;;5048830;28;20432;-73
2021/04/08 09:05:35;;;;;;;2.72;0.60;;;20.90;99.90;;;;;;5045471;28;20052;-71
2021/04/08 09:08:16;;;;;;;4.43;1.00;;;20.90;99.90;;;;;;5048957;28;20512;-72
2021/04/08 09:10:45;;;;;;;6.97;1.67;;;21.00;99.90;;;;;;5051300;28;20435;-70
2021/04/08 09:13:12;;;;;;;6.70;1.75;;;21.00;99.90;;;;;;5054349;28;20033;-72
2021/04/08 09:15:41;;;;;;;8.13;1.73;;;21.00;99.90;;;;;;5054992;28;20050;-72
2021/04/08 09:18:10;;;;;;;5.45;1.60;;;20.90;99.90;;;;;;5053448;28;20025;-73
2021/04/08 09:20:38;;;;;;;8.85;2.60;;;20.90;99.90;;;;;;5054269;28;20029;-73
2021/04/08 09:23:13;;;;;;;9.82;3.15;;;20.80;99.90;;;;;;5055982;28;20039;-73
2021/04/08 09:25:56;;;;;;;9.65;3.50;;;20.80;99.90;;;;;;5055853;28;20036;-73
2021/04/08 09:28:30;;;;;;;7.85;2.72;;;20.80;99.90;;;;;;5053992;28;20020;-73
2021/04/08 09:33:42;;;;;;;13.35;5.95;;;20.70;99.90;;;;;;5051004;28;20045;-73
2021/04/08 09:36:22;;;;;;;11.02;3.72;;;20.70;99.90;;;;;;5051889;28;20025;-72
2021/04/08 09:39:11;;;;;;;6.47;2.53;;;20.80;99.90;;;;;;5052358;28;20488;-73
2021/04/08 09:42:02;;;;;;;6.05;1.48;;;20.80;99.90;;;;;;5050554;28;20440;-72
2021/04/08 09:44:30;;;;;;;3.58;1.15;;;20.80;99.90;;;;;;5054653;28;20021;-72
2021/04/08 09:47:02;;;;;;;8.27;1.80;;;20.80;99.90;;;;;;5054536;28;20029;-72
2021/04/08 09:49:55;;;;;;;6.22;3.17;;;20.80;99.90;;;;;;5055241;28;20425;-72
2021/04/08 09:52:22;;;;;;;8.82;3.47;;;20.80;99.90;;;;;;5053991;28;20069;-72
2021/04/08 09:54:58;;;;;;;7.47;3.05;;;20.70;99.90;;;;;;5053673;28;20033;-72
2021/04/08 09:57:40;;;;;;;6.00;2.58;;;20.70;99.90;;;;;;5053825;28;20039;-72
2021/04/08 10:00:16;;;;;;;5.78;1.85;;;20.70;99.90;;;;;;5051859;28;20017;-72
2021/04/08 10:03:07;;;;;;;5.20;1.85;;;20.60;99.90;;;;;;5054325;28;20509;-71
2021/04/08 10:05:39;;;;;;;3.40;1.33;;;20.50;99.90;;;;;;5054487;28;20037;-72
2021/04/08 10:08:12;;;;;;;6.55;2.00;;;20.50;99.90;;;;;;5054567;28;20021;-72
2021/04/08 10:10:41;;;;;;;5.75;1.77;;;20.40;99.90;;;;;;5053156;28;20033;-72
2021/04/08 10:13:25;;;;;;;5.20;1.88;;;20.40;99.90;;;;;;5049175;28;20056;-71
2021/04/08 10:15:57;;;;;;;5.85;2.03;;;20.30;99.90;;;;;;5052852;28;20052;-71
2021/04/08 10:18:30;;;;;;;7.50;2.22;;;20.30;99.90;;;;;;5054107;28;20033;-72
2021/04/08 10:21:00;;;;;;;7.90;1.48;;;20.30;99.90;;;;;;5052903;28;20032;-72
2021/04/08 10:23:42;;;;;;;4.72;1.60;;;20.30;99.90;;;;;;5054318;28;20496;-72
2021/04/08 10:26:17;;;;;;;6.53;1.45;;;20.30;99.90;;;;;;5052734;28;20068;-72
2021/04/08 10:28:46;;;;;;;4.10;0.98;;;20.30;99.90;;;;;;5052246;28;20167;-72
2021/04/08 10:31:23;;;;;;;5.85;1.35;;;20.30;99.90;;;;;;5052711;28;20032;-72
2021/04/08 10:33:56;;;;;;;4.78;1.27;;;20.30;99.90;;;;;;5052174;28;20072;-72
2021/04/08 10:36:36;;;;;;;5.55;1.55;;;20.30;99.90;;;;;;5052649;28;20381;-72
2021/04/08 10:39:22;;;;;;;6.40;1.70;;;20.30;99.90;;;;;;5053717;28;20056;-72
2021/04/08 10:42:12;;;;;;;5.82;1.85;;;20.30;99.90;;;;;;5053922;28;20090;-72
2021/04/08 10:44:41;;;;;;;4.22;1.20;;;20.30;99.90;;;;;;5053284;28;20021;-72
2021/04/08 10:47:13;;;;;;;4.00;1.13;;;20.20;99.90;;;;;;5052619;28;20062;-71
2021/04/08 10:49:49;;;;;;;8.55;1.60;;;20.20;99.90;;;;;;5053055;28;20477;-70
2021/04/08 10:52:25;;;;;;;7.50;1.02;;;20.30;99.90;;;;;;5047123;28;20029;-71
2021/04/08 10:54:58;;;;;;;7.63;1.23;;;20.30;99.90;;;;;;5052439;28;20056;-71
2021/04/08 10:57:27;;;;;;;5.05;1.35;;;20.30;99.90;;;;;;5049383;28;20040;-71
2021/04/08 10:59:54;;;;;;;5.53;1.30;;;20.20;99.90;;;;;;5054536;28;20044;-70
2021/04/08 11:02:26;;;;;;;4.78;0.98;;;20.20;99.90;;;;;;5050848;28;20025;-71
2021/04/08 11:04:58;;;;;;;9.38;1.50;;;20.30;99.90;;;;;;5052363;28;20021;-74
2021/04/08 11:07:26;;;;;;;6.03;1.35;;;20.30;99.90;;;;;;5049601;28;20033;-71
2021/04/08 11:09:55;;;;;;;5.38;0.70;;;20.30;99.90;;;;;;5052489;28;20059;-72
2021/04/08 11:12:24;;;;;;;3.63;0.70;;;20.30;99.90;;;;;;5052083;28;20070;-72
2021/04/08 11:14:59;;;;;;;5.47;0.90;;;20.20;99.90;;;;;;5045595;28;20025;-72
2021/04/08 11:17:29;;;;;;;7.15;1.30;;;20.10;99.90;;;;;;5051909;28;20086;-70
2021/04/08 11:19:58;;;;;;;4.97;1.10;;;20.10;99.90;;;;;;5052014;28;20025;-71
2021/04/08 11:22:32;;;;;;;5.90;1.10;;;20.00;99.90;;;;;;5059764;28;20424;-71
2021/04/08 11:25:02;;;;;;;3.00;1.38;;;20.00;99.90;;;;;;5048935;28;20074;-71
2021/04/08 11:27:38;;;;;;;4.10;1.20;;;20.00;99.90;;;;;;5049894;28;20066;-71
2021/04/08 11:30:10;;;;;;;5.65;1.42;;;20.00;99.90;;;;;;5056061;28;20037;-71
2021/04/08 11:32:54;;;;;;;4.72;1.00;;;20.00;99.90;;;;;;5053038;28;20102;-71
2021/04/08 11:35:30;;;;;;;8.57;1.52;;;20.00;99.90;;;;;;5052061;28;20037;-71
2021/04/08 11:38:19;;;;;;;7.85;1.55;;;20.00;99.90;;;;;;5038786;28;20087;-71
2021/04/08 11:40:48;;;;;;;4.90;1.33;;;20.00;99.90;;;;;;5053069;28;20033;-71
2021/04/08 11:43:46;;;;;;;4.30;0.85;;;20.00;99.90;;;;;;5050705;28;20028;-71
2021/04/08 11:46:27;;;;;;;8.05;0.77;;;20.00;99.90;;;;;;5044140;28;20041;-71
2021/04/08 11:48:56;;;;;;;4.03;0.90;;;20.10;99.90;;;;;;5050948;28;20025;-71
2021/04/08 11:51:29;;;;;;;4.07;0.88;;;20.00;99.90;;;;;;5052968;28;20017;-71
2021/04/08 11:54:09;;;;;;;9.50;1.75;;;20.00;99.90;;;;;;5052884;28;20037;-71
2021/04/08 11:56:38;;;;;;;7.32;0.77;;;20.10;99.90;;;;;;5051606;28;20397;-71
2021/04/08 11:59:12;;;;;;;5.43;1.23;;;20.10;99.90;;;;;;5052402;28;20032;-71
2021/04/08 12:01:45;;;;;;;5.15;0.50;;;20.10;99.90;;;;;;5051512;28;20665;-71
2021/04/08 12:04:47;;;;;;;5.53;1.00;;;20.10;99.90;;;;;;5052176;28;20031;-71
2021/04/08 12:07:14;;;;;;;3.05;0.50;;;20.10;99.90;;;;;;5048123;28;20108;-71
2021/04/08 12:09:44;;;;;;;4.05;0.50;;;20.00;99.90;;;;;;5052004;28;20025;-71
2021/04/08 12:12:12;;;;;;;6.63;1.33;;;20.00;99.90;;;;;;5052334;28;20051;-71
2021/04/08 12:14:59;;;;;;;4.72;1.05;;;20.00;99.90;;;;;;5050464;28;20025;-71
2021/04/08 12:17:27;;;;;;;5.05;0.57;;;20.00;99.90;;;;;;5051801;28;20395;-71
2021/04/08 12:20:12;;;;;;;5.15;0.70;;;19.90;99.90;;;;;;5051359;28;20032;-71
2021/04/08 12:22:39;;;;;;;5.00;0.50;;;19.90;99.90;;;;;;5050952;28;20025;-71
2021/04/08 12:25:11;;;;;;;1.95;0.38;;;19.90;99.90;;;;;;5049149;28;20697;-71
2021/04/08 12:27:39;;;;;;;6.20;1.15;;;19.80;99.90;;;;;;5050432;28;20017;-71
2021/04/08 12:30:09;;;;;;;4.28;0.90;;;19.90;99.90;;;;;;5051766;28;20036;-71
2021/04/08 12:32:37;;;;;;;4.05;0.80;;;19.90;99.90;;;;;;5050747;28;20049;-71
2021/04/08 12:35:06;;;;;;;3.72;0.60;;;19.90;99.90;;;;;;5051828;28;20063;-71
2021/04/08 12:37:33;;;;;;;6.78;0.77;;;19.90;99.90;;;;;;5048531;28;20033;-73
2021/04/08 12:40:01;;;;;;;6.68;1.33;;;19.90;99.90;;;;;;5040340;28;20036;-71
2021/04/08 12:42:28;;;;;;;2.72;0.70;;;19.80;99.90;;;;;;5050809;28;20100;-71
2021/04/08 12:44:56;;;;;;;5.88;1.23;;;19.80;99.90;;;;;;5061645;28;20374;-72
2021/04/08 12:47:25;;;;;;;5.78;1.00;;;19.70;99.90;;;;;;5050282;28;20071;-73
2021/04/08 12:49:53;;;;;;;7.55;1.17;;;19.70;99.90;;;;;;5050010;28;20040;-71
2021/04/08 12:52:20;;;;;;;4.88;0.60;;;19.80;99.90;;;;;;5052172;28;20029;-71
2021/04/08 12:54:47;;;;;;;5.20;1.10;;;19.80;99.90;;;;;;5051643;28;20145;-72
2021/04/08 12:57:14;;;;;;;6.30;1.05;;;19.80;99.90;;;;;;5048489;28;20041;-71
2021/04/08 12:59:41;;;;;;;5.47;0.60;;;19.80;99.90;;;;;;5051196;28;20028;-71
2021/04/08 13:02:09;;;;;;;6.10;1.13;;;19.70;99.90;;;;;;5051232;28;20021;-71
2021/04/08 13:04:36;;;;;;;2.75;0.70;;;19.70;99.90;;;;;;5050606;28;20017;-71
2021/04/08 13:07:03;;;;;;;5.80;1.23;;;19.60;99.90;;;;;;5051173;28;20363;-71
2021/04/08 13:09:31;;;;;;;2.67;0.60;;;19.50;99.90;;;;;;5051904;28;20029;-71
2021/04/08 13:11:59;;;;;;;2.88;0.70;;;19.50;99.90;;;;;;5051332;28;20070;-71